Cedar Arrow — C6RZ7 — position and weather

sailwx.info

Track history (hours):
 
Tides and Currents Weather Stations Pressure Air Temp Water Temp Dewpoint Dewpoint Depression Visibility Wind Speed Wind Dir Waves Ship Positions

Cedar Arrow

Last reported at 2018-Apr-26 19:00 UTC. Time now 2018-Apr-26 19:17 UTC.
Position N 30°12' W 093°16'.

Length 190 m; draft 8.2 m.

Type: Cargo ship. MMSI: 311259000.

Date/timePositionNaut miles runAvg speedWind from/ knotsBaromVisibWave heightAir tempDewpointWater temp
2018-Apr-26 19:00N 30°12' W 093°16'3 6.4
2018-Apr-26 18:30N 30°10' W 093°19'3 5.3
2018-Apr-26 18:00N 30°08' W 093°20'3 6.9
2018-Apr-26 17:30N 30°04' W 093°20'3 6.9
2018-Apr-26 17:00N 30°01' W 093°20'3 5.4
2018-Apr-26 16:30N 29°58' W 093°20'4 8.7
2018-Apr-26 16:00N 29°54' W 093°21'5 9.1
2018-Apr-26 15:30N 29°49' W 093°21'10 9.1
2018-Apr-26 14:24N 29°39' W 093°20'3 6.7
2018-Apr-26 13:59N 29°37' W 093°17'12 6.8
2018-Apr-26 12:11N 29°26' W 093°13'310.0
2018-Apr-26 11:53N 29°23' W 093°13'  
2018-Apr-22 02:53N 27°38' W 082°37'3 7.4
2018-Apr-22 02:30N 27°38' W 082°34'1 1.8
2018-Apr-22 02:01N 27°38' W 082°34'0 0.0
2018-Apr-22 01:30N 27°38' W 082°34'0 0.0
2018-Apr-22 01:00N 27°38' W 082°34'0 0.0
2018-Apr-22 00:27N 27°38' W 082°34'0 0.0
2018-Apr-22 00:00N 27°38' W 082°34'0 0.0
2018-Apr-21 23:30N 27°38' W 082°34'0 0.0
2018-Apr-21 22:54N 27°38' W 082°34'0 0.0
2018-Apr-21 22:30N 27°38' W 082°34'0 0.0
2018-Apr-21 22:00N 27°38' W 082°34'0 0.0
2018-Apr-21 21:30N 27°38' W 082°34'0 0.0
2018-Apr-21 21:00N 27°38' W 082°34'0 0.0
2018-Apr-21 20:24N 27°38' W 082°34'0 0.0
2018-Apr-21 20:00N 27°38' W 082°34'0 0.0
2018-Apr-21 19:30N 27°38' W 082°34'0 0.0
2018-Apr-21 19:00N 27°38' W 082°34'0 0.0
2018-Apr-21 18:27N 27°38' W 082°34'0 0.0
2018-Apr-21 17:54N 27°38' W 082°34'0 0.0
2018-Apr-21 17:30N 27°38' W 082°34'0 0.0
2018-Apr-21 17:00N 27°38' W 082°34'0 0.0
2018-Apr-21 16:27N 27°38' W 082°34'0 0.0
2018-Apr-21 16:00N 27°38' W 082°34'0 0.0
2018-Apr-21 15:30N 27°38' W 082°34'0 0.0
2018-Apr-21 15:00N 27°38' W 082°34'0 0.0
2018-Apr-21 14:30N 27°38' W 082°34'0 0.0
2018-Apr-21 13:57N 27°38' W 082°34'0 0.0
2018-Apr-21 13:21N 27°38' W 082°34'0 0.0
2018-Apr-21 12:57N 27°38' W 082°34'0 0.0
2018-Apr-21 12:27N 27°38' W 082°34'0 0.0
2018-Apr-21 11:42N 27°38' W 082°34'0 0.0
2018-Apr-21 11:30N 27°38' W 082°34'0 0.0
2018-Apr-21 10:51N 27°38' W 082°34'0 0.0
2018-Apr-21 10:15N 27°38' W 082°34'0 0.0
2018-Apr-21 09:57N 27°38' W 082°34'0 0.0
2018-Apr-21 09:30N 27°38' W 082°34'0 0.0
2018-Apr-21 08:45N 27°38' W 082°34'0 0.0
2018-Apr-21 08:27N 27°38' W 082°34'0 0.0
2018-Apr-21 07:57N 27°38' W 082°34'0 0.0
2018-Apr-21 07:21N 27°38' W 082°34'0 0.0
2018-Apr-21 06:57N 27°38' W 082°34'0 0.0
2018-Apr-21 05:18N 27°38' W 082°34'0 0.0
2018-Apr-21 04:21N 27°38' W 082°34'0 0.0
2018-Apr-21 03:57N 27°38' W 082°34'0 0.0
2018-Apr-21 03:27N 27°38' W 082°34'0 0.0
2018-Apr-21 03:00N 27°38' W 082°34'0 0.0
2018-Apr-21 02:30N 27°38' W 082°34'0 0.0
2018-Apr-21 02:00N 27°38' W 082°34'0 0.0
2018-Apr-21 01:27N 27°38' W 082°34'0 0.0
2018-Apr-21 00:57N 27°38' W 082°34'0 0.0
2018-Apr-21 00:30N 27°38' W 082°34'0 0.0
2018-Apr-21 00:00N 27°38' W 082°34'0 0.0
2018-Apr-20 23:27N 27°38' W 082°34'0 0.0
2018-Apr-20 22:57N 27°38' W 082°34'0 0.0
2018-Apr-20 22:30N 27°38' W 082°34'0 0.0
2018-Apr-20 22:00N 27°38' W 082°34'0 0.0
2018-Apr-20 21:30N 27°38' W 082°34'0 0.0
2018-Apr-20 21:00N 27°38' W 082°34'0 0.0
2018-Apr-20 20:30N 27°38' W 082°34'0 0.0
2018-Apr-20 19:57N 27°38' W 082°34'0 0.0
2018-Apr-20 19:27N 27°38' W 082°34'0 0.0
2018-Apr-20 18:57N 27°38' W 082°34'0 0.0
2018-Apr-20 18:30N 27°38' W 082°34'0 0.0
2018-Apr-20 18:00N 27°38' W 082°34'0 0.0
2018-Apr-20 17:27N 27°38' W 082°34'0 0.0
2018-Apr-20 16:54N 27°38' W 082°34'0 0.0
2018-Apr-20 16:27N 27°38' W 082°34'0 0.0
2018-Apr-20 16:00N 27°38' W 082°34'0 0.0
2018-Apr-20 15:30N 27°38' W 082°34'0 0.0
2018-Apr-20 14:51N 27°38' W 082°34'0 0.0
2018-Apr-20 14:27N 27°38' W 082°34'0 0.0
2018-Apr-20 14:00N 27°38' W 082°34'0 0.0
2018-Apr-20 13:24N 27°38' W 082°34'0 0.0
2018-Apr-20 13:00N 27°38' W 082°34'0 0.0
2018-Apr-20 12:30N 27°38' W 082°34'0 0.0
2018-Apr-20 11:48N 27°38' W 082°34'0 0.0
2018-Apr-20 11:30N 27°38' W 082°34'0 0.0
2018-Apr-20 11:00N 27°38' W 082°34'0 0.0
2018-Apr-20 10:30N 27°38' W 082°34'0 0.0
2018-Apr-20 09:54N 27°38' W 082°34'0 0.0
2018-Apr-20 09:27N 27°38' W 082°34'0 0.0
2018-Apr-20 09:00N 27°38' W 082°34'0 0.0
2018-Apr-20 08:30N 27°38' W 082°34'0 0.0
2018-Apr-20 07:57N 27°38' W 082°34'0 0.0
2018-Apr-20 07:30N 27°38' W 082°34'0 0.0
2018-Apr-20 07:00N 27°38' W 082°34'0 0.0
2018-Apr-20 06:27N 27°38' W 082°34'0 0.0
2018-Apr-20 06:00N 27°38' W 082°34'0 0.0
2018-Apr-20 05:30N 27°38' W 082°34'0 0.0
2018-Apr-20 05:00N 27°38' W 082°34'0 0.0
2018-Apr-20 04:30N 27°38' W 082°34'0 0.0
2018-Apr-20 04:00N 27°38' W 082°34'0 0.0
2018-Apr-20 03:30N 27°38' W 082°34'0 0.0
2018-Apr-20 03:00N 27°38' W 082°34'0 0.0
2018-Apr-20 02:30N 27°38' W 082°34'0 0.0
2018-Apr-20 01:48N 27°38' W 082°34'0 0.0
2018-Apr-20 01:27N 27°38' W 082°34'0 0.0
2018-Apr-20 01:00N 27°38' W 082°34'0 0.0
2018-Apr-20 00:30N 27°38' W 082°34'0 0.0
2018-Apr-19 23:57N 27°38' W 082°34'0 0.0
2018-Apr-19 23:27N 27°38' W 082°34'0 0.0
2018-Apr-19 22:57N 27°38' W 082°34'0 0.0
2018-Apr-19 22:30N 27°38' W 082°34'0 0.0
2018-Apr-19 22:00N 27°38' W 082°34'0 0.0
2018-Apr-19 21:30N 27°38' W 082°34'0 0.0
2018-Apr-19 20:57N 27°38' W 082°34'0 0.0
2018-Apr-19 20:24N 27°38' W 082°34'0 0.0
2018-Apr-19 20:00N 27°38' W 082°34'0 0.0
2018-Apr-19 19:27N 27°38' W 082°34'0 0.0
2018-Apr-19 19:00N 27°38' W 082°34'0 0.0
2018-Apr-19 18:30N 27°38' W 082°34'0 0.0
2018-Apr-19 18:00N 27°38' W 082°34'0 0.0
2018-Apr-19 17:27N 27°38' W 082°34'0 0.0
2018-Apr-19 16:57N 27°38' W 082°34'0 0.0
2018-Apr-19 16:30N 27°38' W 082°34'0 0.0
2018-Apr-19 15:57N 27°38' W 082°34'0 0.0
2018-Apr-19 15:09N 27°38' W 082°34'0 0.0
2018-Apr-19 15:00N 27°38' W 082°34'0 0.0
2018-Apr-19 14:27N 27°38' W 082°34'0 0.0
2018-Apr-19 14:00N 27°38' W 082°34'0 0.0
2018-Apr-19 13:30N 27°38' W 082°34'0 0.0
2018-Apr-19 13:00N 27°38' W 082°34'0 0.0
2018-Apr-19 12:30N 27°38' W 082°34'0 0.0
2018-Apr-19 12:00N 27°38' W 082°34'0 0.0
2018-Apr-19 11:30N 27°38' W 082°34'0 0.0
2018-Apr-19 10:57N 27°38' W 082°34'0 0.0
2018-Apr-19 10:30N 27°38' W 082°34'0 0.0
2018-Apr-19 10:00N 27°38' W 082°34'0 0.0
2018-Apr-19 09:30N 27°38' W 082°34'0 0.0
2018-Apr-19 09:00N 27°38' W 082°34'0 0.0
2018-Apr-19 08:27N 27°38' W 082°34'0 0.0
2018-Apr-19 08:00N 27°38' W 082°34'0 0.0
2018-Apr-19 07:21N 27°38' W 082°34'0 0.0
2018-Apr-19 06:57N 27°38' W 082°34'0 0.0
2018-Apr-19 06:24N 27°38' W 082°34'0 0.0
2018-Apr-19 05:48N 27°38' W 082°34'0 0.0
2018-Apr-19 05:24N 27°38' W 082°34'0 0.0
2018-Apr-19 04:54N 27°38' W 082°34'0 0.0
2018-Apr-19 04:30N 27°38' W 082°34'0 0.0
2018-Apr-19 03:57N 27°38' W 082°34'0 0.0
2018-Apr-19 03:30N 27°38' W 082°34'0 0.0
2018-Apr-19 03:00N 27°38' W 082°34'0 0.0
2018-Apr-19 02:24N 27°38' W 082°34'0 0.0
2018-Apr-19 02:00N 27°38' W 082°34'0 0.0
2018-Apr-19 01:27N 27°38' W 082°34'0 0.0
2018-Apr-19 01:00N 27°38' W 082°34'0 0.0
2018-Apr-19 00:24N 27°38' W 082°34'0 0.0
2018-Apr-19 00:00N 27°38' W 082°34'0 0.0
2018-Apr-18 23:30N 27°38' W 082°34'0 0.0
2018-Apr-18 22:57N 27°38' W 082°34'0 0.0
2018-Apr-18 22:30N 27°38' W 082°34'0 0.0
2018-Apr-18 22:00N 27°38' W 082°34'0 0.0
2018-Apr-18 21:30N 27°38' W 082°34'0 0.0
2018-Apr-18 21:00N 27°38' W 082°34'0 0.5
2018-Apr-18 20:31N 27°38' W 082°34'3 5.4
2018-Apr-18 20:01N 27°39' W 082°37'610.8
2018-Apr-18 19:30N 27°37' W 082°42'19 9.6
2018-Apr-18 17:29N 27°36' W 083°04'2 4.2
2018-Apr-18 16:59N 27°35' W 083°06'5 4.8
2018-Apr-18 16:01N 27°31' W 083°09'210.3
2018-Apr-18 15:49N 27°29' W 083°10'10 2.7
2018-Apr-18 12:07N 27°20' W 083°13'2911.8
2018-Apr-18 09:39N 26°50' W 083°13'211.8
2018-Apr-18 09:29N 26°48' W 083°13'611.8
2018-Apr-18 08:58N 26°42' W 083°13'  
Track history (hours):
 
Tides and Currents Weather Stations Pressure Air Temp Water Temp Dewpoint Dewpoint Depression Visibility Wind Speed Wind Dir Waves Ship Positions

Cedar Arrow

Last reported at 2018-Apr-26 19:00 UTC. Time now 2018-Apr-26 19:17 UTC.
Position N 30°12' W 093°16'.

Length 190 m; draft 8.2 m.

Type: Cargo ship. MMSI: 311259000.

Date/timePositionNaut miles runAvg speedWind from/ knotsBaromVisibWave heightAir tempDewpointWater temp
2018-Apr-26 19:00N 30°12' W 093°16'3 6.4
2018-Apr-26 18:30N 30°10' W 093°19'3 5.3
2018-Apr-26 18:00N 30°08' W 093°20'3 6.9
2018-Apr-26 17:30N 30°04' W 093°20'3 6.9
2018-Apr-26 17:00N 30°01' W 093°20'3 5.4
2018-Apr-26 16:30N 29°58' W 093°20'4 8.7
2018-Apr-26 16:00N 29°54' W 093°21'5 9.1
2018-Apr-26 15:30N 29°49' W 093°21'10 9.1
2018-Apr-26 14:24N 29°39' W 093°20'3 6.7
2018-Apr-26 13:59N 29°37' W 093°17'12 6.8
2018-Apr-26 12:11N 29°26' W 093°13'310.0
2018-Apr-26 11:53N 29°23' W 093°13'  
2018-Apr-22 02:53N 27°38' W 082°37'3 7.4
2018-Apr-22 02:30N 27°38' W 082°34'1 1.8
2018-Apr-22 02:01N 27°38' W 082°34'0 0.0
2018-Apr-22 01:30N 27°38' W 082°34'0 0.0
2018-Apr-22 01:00N 27°38' W 082°34'0 0.0
2018-Apr-22 00:27N 27°38' W 082°34'0 0.0
2018-Apr-22 00:00N 27°38' W 082°34'0 0.0
2018-Apr-21 23:30N 27°38' W 082°34'0 0.0
2018-Apr-21 22:54N 27°38' W 082°34'0 0.0
2018-Apr-21 22:30N 27°38' W 082°34'0 0.0
2018-Apr-21 22:00N 27°38' W 082°34'0 0.0
2018-Apr-21 21:30N 27°38' W 082°34'0 0.0
2018-Apr-21 21:00N 27°38' W 082°34'0 0.0
2018-Apr-21 20:24N 27°38' W 082°34'0 0.0
2018-Apr-21 20:00N 27°38' W 082°34'0 0.0
2018-Apr-21 19:30N 27°38' W 082°34'0 0.0
2018-Apr-21 19:00N 27°38' W 082°34'0 0.0
2018-Apr-21 18:27N 27°38' W 082°34'0 0.0
2018-Apr-21 17:54N 27°38' W 082°34'0 0.0
2018-Apr-21 17:30N 27°38' W 082°34'0 0.0
2018-Apr-21 17:00N 27°38' W 082°34'0 0.0
2018-Apr-21 16:27N 27°38' W 082°34'0 0.0
2018-Apr-21 16:00N 27°38' W 082°34'0 0.0
2018-Apr-21 15:30N 27°38' W 082°34'0 0.0
2018-Apr-21 15:00N 27°38' W 082°34'0 0.0
2018-Apr-21 14:30N 27°38' W 082°34'0 0.0
2018-Apr-21 13:57N 27°38' W 082°34'0 0.0
2018-Apr-21 13:21N 27°38' W 082°34'0 0.0
2018-Apr-21 12:57N 27°38' W 082°34'0 0.0
2018-Apr-21 12:27N 27°38' W 082°34'0 0.0
2018-Apr-21 11:42N 27°38' W 082°34'0 0.0
2018-Apr-21 11:30N 27°38' W 082°34'0 0.0
2018-Apr-21 10:51N 27°38' W 082°34'0 0.0
2018-Apr-21 10:15N 27°38' W 082°34'0 0.0
2018-Apr-21 09:57N 27°38' W 082°34'0 0.0
2018-Apr-21 09:30N 27°38' W 082°34'0 0.0
2018-Apr-21 08:45N 27°38' W 082°34'0 0.0
2018-Apr-21 08:27N 27°38' W 082°34'0 0.0
2018-Apr-21 07:57N 27°38' W 082°34'0 0.0
2018-Apr-21 07:21N 27°38' W 082°34'0 0.0
2018-Apr-21 06:57N 27°38' W 082°34'0 0.0
2018-Apr-21 05:18N 27°38' W 082°34'0 0.0
2018-Apr-21 04:21N 27°38' W 082°34'0 0.0
2018-Apr-21 03:57N 27°38' W 082°34'0 0.0
2018-Apr-21 03:27N 27°38' W 082°34'0 0.0
2018-Apr-21 03:00N 27°38' W 082°34'0 0.0
2018-Apr-21 02:30N 27°38' W 082°34'0 0.0
2018-Apr-21 02:00N 27°38' W 082°34'0 0.0
2018-Apr-21 01:27N 27°38' W 082°34'0 0.0
2018-Apr-21 00:57N 27°38' W 082°34'0 0.0
2018-Apr-21 00:30N 27°38' W 082°34'0 0.0
2018-Apr-21 00:00N 27°38' W 082°34'0 0.0
2018-Apr-20 23:27N 27°38' W 082°34'0 0.0
2018-Apr-20 22:57N 27°38' W 082°34'0 0.0
2018-Apr-20 22:30N 27°38' W 082°34'0 0.0
2018-Apr-20 22:00N 27°38' W 082°34'0 0.0
2018-Apr-20 21:30N 27°38' W 082°34'0 0.0
2018-Apr-20 21:00N 27°38' W 082°34'0 0.0
2018-Apr-20 20:30N 27°38' W 082°34'0 0.0
2018-Apr-20 19:57N 27°38' W 082°34'0 0.0
2018-Apr-20 19:27N 27°38' W 082°34'0 0.0
2018-Apr-20 18:57N 27°38' W 082°34'0 0.0
2018-Apr-20 18:30N 27°38' W 082°34'0 0.0
2018-Apr-20 18:00N 27°38' W 082°34'0 0.0
2018-Apr-20 17:27N 27°38' W 082°34'0 0.0
2018-Apr-20 16:54N 27°38' W 082°34'0 0.0
2018-Apr-20 16:27N 27°38' W 082°34'0 0.0
2018-Apr-20 16:00N 27°38' W 082°34'0 0.0
2018-Apr-20 15:30N 27°38' W 082°34'0 0.0
2018-Apr-20 14:51N 27°38' W 082°34'0 0.0
2018-Apr-20 14:27N 27°38' W 082°34'0 0.0
2018-Apr-20 14:00N 27°38' W 082°34'0 0.0
2018-Apr-20 13:24N 27°38' W 082°34'0 0.0
2018-Apr-20 13:00N 27°38' W 082°34'0 0.0
2018-Apr-20 12:30N 27°38' W 082°34'0 0.0
2018-Apr-20 11:48N 27°38' W 082°34'0 0.0
2018-Apr-20 11:30N 27°38' W 082°34'0 0.0
2018-Apr-20 11:00N 27°38' W 082°34'0 0.0
2018-Apr-20 10:30N 27°38' W 082°34'0 0.0
2018-Apr-20 09:54N 27°38' W 082°34'0 0.0
2018-Apr-20 09:27N 27°38' W 082°34'0 0.0
2018-Apr-20 09:00N 27°38' W 082°34'0 0.0
2018-Apr-20 08:30N 27°38' W 082°34'0 0.0
2018-Apr-20 07:57N 27°38' W 082°34'0 0.0
2018-Apr-20 07:30N 27°38' W 082°34'0 0.0
2018-Apr-20 07:00N 27°38' W 082°34'0 0.0
2018-Apr-20 06:27N 27°38' W 082°34'0 0.0
2018-Apr-20 06:00N 27°38' W 082°34'0 0.0
2018-Apr-20 05:30N 27°38' W 082°34'0 0.0
2018-Apr-20 05:00N 27°38' W 082°34'0 0.0
2018-Apr-20 04:30N 27°38' W 082°34'0 0.0
2018-Apr-20 04:00N 27°38' W 082°34'0 0.0
2018-Apr-20 03:30N 27°38' W 082°34'0 0.0
2018-Apr-20 03:00N 27°38' W 082°34'0 0.0
2018-Apr-20 02:30N 27°38' W 082°34'0 0.0
2018-Apr-20 01:48N 27°38' W 082°34'0 0.0
2018-Apr-20 01:27N 27°38' W 082°34'0 0.0
2018-Apr-20 01:00N 27°38' W 082°34'0 0.0
2018-Apr-20 00:30N 27°38' W 082°34'0 0.0
2018-Apr-19 23:57N 27°38' W 082°34'0 0.0
2018-Apr-19 23:27N 27°38' W 082°34'0 0.0
2018-Apr-19 22:57N 27°38' W 082°34'0 0.0
2018-Apr-19 22:30N 27°38' W 082°34'0 0.0
2018-Apr-19 22:00N 27°38' W 082°34'0 0.0
2018-Apr-19 21:30N 27°38' W 082°34'0 0.0
2018-Apr-19 20:57N 27°38' W 082°34'0 0.0
2018-Apr-19 20:24N 27°38' W 082°34'0 0.0
2018-Apr-19 20:00N 27°38' W 082°34'0 0.0
2018-Apr-19 19:27N 27°38' W 082°34'0 0.0
2018-Apr-19 19:00N 27°38' W 082°34'0 0.0
2018-Apr-19 18:30N 27°38' W 082°34'0 0.0
2018-Apr-19 18:00N 27°38' W 082°34'0 0.0
2018-Apr-19 17:27N 27°38' W 082°34'0 0.0
2018-Apr-19 16:57N 27°38' W 082°34'0 0.0
2018-Apr-19 16:30N 27°38' W 082°34'0 0.0
2018-Apr-19 15:57N 27°38' W 082°34'0 0.0
2018-Apr-19 15:09N 27°38' W 082°34'0 0.0
2018-Apr-19 15:00N 27°38' W 082°34'0 0.0
2018-Apr-19 14:27N 27°38' W 082°34'0 0.0
2018-Apr-19 14:00N 27°38' W 082°34'0 0.0
2018-Apr-19 13:30N 27°38' W 082°34'0 0.0
2018-Apr-19 13:00N 27°38' W 082°34'0 0.0
2018-Apr-19 12:30N 27°38' W 082°34'0 0.0
2018-Apr-19 12:00N 27°38' W 082°34'0 0.0
2018-Apr-19 11:30N 27°38' W 082°34'0 0.0
2018-Apr-19 10:57N 27°38' W 082°34'0 0.0
2018-Apr-19 10:30N 27°38' W 082°34'0 0.0
2018-Apr-19 10:00N 27°38' W 082°34'0 0.0
2018-Apr-19 09:30N 27°38' W 082°34'0 0.0
2018-Apr-19 09:00N 27°38' W 082°34'0 0.0
2018-Apr-19 08:27N 27°38' W 082°34'0 0.0
2018-Apr-19 08:00N 27°38' W 082°34'0 0.0
2018-Apr-19 07:21N 27°38' W 082°34'0 0.0
2018-Apr-19 06:57N 27°38' W 082°34'0 0.0
2018-Apr-19 06:24N 27°38' W 082°34'0 0.0
2018-Apr-19 05:48N 27°38' W 082°34'0 0.0
2018-Apr-19 05:24N 27°38' W 082°34'0 0.0
2018-Apr-19 04:54N 27°38' W 082°34'0 0.0
2018-Apr-19 04:30N 27°38' W 082°34'0 0.0
2018-Apr-19 03:57N 27°38' W 082°34'0 0.0
2018-Apr-19 03:30N 27°38' W 082°34'0 0.0
2018-Apr-19 03:00N 27°38' W 082°34'0 0.0
2018-Apr-19 02:24N 27°38' W 082°34'0 0.0
2018-Apr-19 02:00N 27°38' W 082°34'0 0.0
2018-Apr-19 01:27N 27°38' W 082°34'0 0.0
2018-Apr-19 01:00N 27°38' W 082°34'0 0.0
2018-Apr-19 00:24N 27°38' W 082°34'0 0.0
2018-Apr-19 00:00N 27°38' W 082°34'0 0.0
2018-Apr-18 23:30N 27°38' W 082°34'0 0.0
2018-Apr-18 22:57N 27°38' W 082°34'0 0.0
2018-Apr-18 22:30N 27°38' W 082°34'0 0.0
2018-Apr-18 22:00N 27°38' W 082°34'0 0.0
2018-Apr-18 21:30N 27°38' W 082°34'0 0.0
2018-Apr-18 21:00N 27°38' W 082°34'0 0.5
2018-Apr-18 20:31N 27°38' W 082°34'3 5.4
2018-Apr-18 20:01N 27°39' W 082°37'610.8
2018-Apr-18 19:30N 27°37' W 082°42'19 9.6
2018-Apr-18 17:29N 27°36' W 083°04'2 4.2
2018-Apr-18 16:59N 27°35' W 083°06'5 4.8
2018-Apr-18 16:01N 27°31' W 083°09'210.3
2018-Apr-18 15:49N 27°29' W 083°10'10 2.7
2018-Apr-18 12:07N 27°20' W 083°13'2911.8
2018-Apr-18 09:39N 26°50' W 083°13'211.8
2018-Apr-18 09:29N 26°48' W 083°13'611.8
2018-Apr-18 08:58N 26°42' W 083°13'  

Dump ship's entire track history